Time;durP1;ratioP1;P1;durP2;ratioP2;P2;SDS_P1;SDS_P2;PMS_P1;PMS_P2;Temp;Humidity;BMP_temperature;BMP_pressure;BME280_temperature;BME280_humidity;BME280_pressure;Samples;Min_cycle;Max_cycle;Signal;HPM_P1;HPM_P2
2022/10/25 00:01:23;;;;;;;;;;;;;;;11.96;70.08;101231.11;1704668;84;25796;-61
2022/10/25 00:03:50;;;;;;;;;;;;;;;11.96;70.04;101226.55;1704534;84;25722;-61
2022/10/25 00:06:16;;;;;;;;;;;;;;;12.05;70.30;101229.83;1704842;84;27485;-61
2022/10/25 00:08:43;;;;;;;;;;;;;;;12.14;70.66;101225.48;1704622;84;27188;-61
2022/10/25 00:11:18;;;;;;;;;;;;;;;12.20;70.48;101226.75;1704905;84;25754;-61
2022/10/25 00:13:46;;;;;;;;;;;;;;;12.28;70.45;101230.13;1678653;85;25799;-61
2022/10/25 00:16:16;;;;;;;;;;;;;;;12.35;70.58;101226.77;1679690;85;25631;-61
2022/10/25 00:18:43;;;;;;;;;;;;;;;12.43;70.12;101231.45;1678635;83;28457;-61
2022/10/25 00:21:09;;;;;;;;;;;;;;;12.49;70.20;101232.75;1677656;83;25637;-61
2022/10/25 00:23:36;;;;;;;;;;;;;;;12.55;70.17;101233.55;1678635;85;25446;-59
2022/10/25 00:26:05;;;;;;;;;;;;;;;12.60;70.07;101226.38;1678661;85;25835;-61
2022/10/25 00:28:32;;;;;;;;;;;;;;;12.65;70.03;101226.33;1678553;85;25819;-60
2022/10/25 00:31:06;;;;;;;;;;;;;;;12.70;69.98;101228.61;1678364;85;27529;-60
2022/10/25 00:33:34;;;;;;;;;;;;;;;12.70;70.07;101230.47;1678392;84;25821;-61
2022/10/25 00:36:05;;;;;;;;;;;;;;;12.70;69.98;101234.02;1678695;85;25747;-61
2022/10/25 00:38:32;;;;;;;;;;;;;;;12.70;69.90;101227.27;1676437;85;26480;-61
2022/10/25 00:40:59;;;;;;;;;;;;;;;12.71;69.88;101222.22;1676841;85;25563;-60
2022/10/25 00:43:41;;;;;;;;;;;;;;;12.71;69.74;101217.34;1678632;84;27481;-60
2022/10/25 00:46:11;;;;;;;;;;;;;;;12.67;69.63;101218.95;1680495;84;26290;-60
2022/10/25 00:48:38;;;;;;;;;;;;;;;12.62;69.36;101217.66;1685399;84;25770;-61
2022/10/25 00:51:05;;;;;;;;;;;;;;;12.57;69.47;101211.84;1677576;84;25861;-61
2022/10/25 00:53:34;;;;;;;;;;;;;;;12.52;69.81;101215.79;1682007;84;25679;-61
2022/10/25 00:56:10;;;;;;;;;;;;;;;12.48;69.87;101221.13;1682556;84;28271;-61
2022/10/25 00:58:38;;;;;;;;;;;;;;;12.44;69.95;101212.92;1684801;85;25704;-61
2022/10/25 01:01:06;;;;;;;;;;;;;;;12.42;70.02;101214.06;1686032;85;25718;-61
2022/10/25 01:03:35;;;;;;;;;;;;;;;12.36;70.08;101205.54;1686037;85;25790;-60
2022/10/25 01:06:04;;;;;;;;;;;;;;;12.34;70.18;101210.69;1685960;85;25723;-60
2022/10/25 01:08:31;;;;;;;;;;;;;;;12.31;70.32;101206.94;1685331;84;28387;-60
2022/10/25 01:10:58;;;;;;;;;;;;;;;12.29;70.01;101210.27;1685550;84;25470;-60
2022/10/25 01:13:24;;;;;;;;;;;;;;;12.25;70.26;101202.07;1685731;85;25746;-61
2022/10/25 01:15:57;;;;;;;;;;;;;;;12.22;70.29;101200.50;1686151;84;26733;-59
2022/10/25 01:18:33;;;;;;;;;;;;;;;12.19;70.54;101202.14;1685600;85;26320;-60
2022/10/25 01:21:30;;;;;;;;;;;;;;;12.16;70.64;101206.45;1685206;84;27643;-61
2022/10/25 01:24:06;;;;;;;;;;;;;;;12.12;70.76;101202.31;1640777;86;25757;-61
2022/10/25 01:26:50;;;;;;;;;;;;;;;12.12;70.46;101195.56;1676354;84;25838;-61
2022/10/25 01:29:29;;;;;;;;;;;;;;;12.08;70.48;101189.59;1679553;84;25994;-60
2022/10/25 01:32:10;;;;;;;;;;;;;;;12.05;70.83;101186.67;1684679;84;25785;-60
2022/10/25 01:34:43;;;;;;;;;;;;;;;12.02;70.93;101188.80;1685148;84;28305;-61
2022/10/25 01:37:19;;;;;;;;;;;;;;;11.96;71.12;101187.46;1684913;84;25798;-60
2022/10/25 01:39:48;;;;;;;;;;;;;;;11.95;71.25;101188.44;1682740;85;25820;-61
2022/10/25 01:42:24;;;;;;;;;;;;;;;11.93;71.29;101189.57;1687609;85;26602;-59
2022/10/25 01:45:08;;;;;;;;;;;;;;;11.90;71.44;101182.61;1687136;85;25982;-61
2022/10/25 01:47:44;;;;;;;;;;;;;;;11.87;71.47;101183.75;1681639;84;27456;-61
2022/10/25 01:50:14;;;;;;;;;;;;;;;11.83;71.60;101182.29;1679673;85;25855;-61
2022/10/25 01:52:41;;;;;;;;;;;;;;;11.83;71.61;101185.50;1678747;85;25716;-61
2022/10/25 01:55:10;;;;;;;;;;;;;;;11.81;71.62;101189.66;1678377;84;25835;-61
2022/10/25 01:57:40;;;;;;;;;;;;;;;11.80;71.82;101186.59;1678994;85;25430;-61
2022/10/25 02:00:10;;;;;;;;;;;;;;;11.78;71.89;101189.94;1677916;84;27683;-61
2022/10/25 02:02:41;;;;;;;;;;;;;;;11.77;71.98;101190.05;1678706;84;25936;-61
2022/10/25 02:05:15;;;;;;;;;;;;;;;11.75;72.01;101181.60;1678242;84;25786;-61
2022/10/25 02:07:44;;;;;;;;;;;;;;;11.74;72.17;101176.36;1678548;85;25946;-61
2022/10/25 02:10:17;;;;;;;;;;;;;;;11.72;72.06;101179.67;1676230;84;25900;-61
2022/10/25 02:12:53;;;;;;;;;;;;;;;11.70;72.37;101173.55;1678792;84;27620;-61
2022/10/25 02:15:35;;;;;;;;;;;;;;;11.68;72.25;101164.27;1677462;85;26328;-59
2022/10/25 02:18:04;;;;;;;;;;;;;;;11.66;72.25;101168.09;1674810;84;25770;-60
2022/10/25 02:20:33;;;;;;;;;;;;;;;11.65;72.50;101167.73;1675933;85;26833;-61
2022/10/25 02:23:03;;;;;;;;;;;;;;;11.63;72.39;101163.83;1678925;85;25722;-60
2022/10/25 02:25:34;;;;;;;;;;;;;;;11.63;72.47;101158.91;1678063;85;27640;-61
2022/10/25 02:28:03;;;;;;;;;;;;;;;11.61;72.26;101164.45;1678795;84;25691;-60
2022/10/25 02:30:32;;;;;;;;;;;;;;;11.62;72.89;101168.86;1678682;85;25747;-60
2022/10/25 02:32:58;;;;;;;;;;;;;;;11.64;72.88;101166.89;1678489;85;25981;-60
2022/10/25 02:35:25;;;;;;;;;;;;;;;11.68;72.68;101170.16;1678221;85;25703;-61
2022/10/25 02:37:51;;;;;;;;;;;;;;;11.67;72.83;101163.91;1678869;84;27635;-59
2022/10/25 02:40:18;;;;;;;;;;;;;;;11.71;72.81;101162.66;1676675;84;25718;-60
2022/10/25 02:42:44;;;;;;;;;;;;;;;11.75;73.16;101165.94;1674730;85;25733;-61
2022/10/25 02:45:11;;;;;;;;;;;;;;;11.80;73.44;101162.84;1674601;85;25801;-61
2022/10/25 02:47:38;;;;;;;;;;;;;;;11.86;73.39;101162.29;1679915;85;25467;-61
2022/10/25 02:50:06;;;;;;;;;;;;;;;11.93;73.52;101159.41;1681033;84;27562;-61
2022/10/25 02:52:32;;;;;;;;;;;;;;;11.98;73.59;101160.38;1682218;85;25727;-61
2022/10/25 02:54:59;;;;;;;;;;;;;;;12.05;73.74;101154.83;1681889;84;25700;-62
2022/10/25 02:57:25;;;;;;;;;;;;;;;12.08;73.54;101153.70;1680139;85;25841;-61
2022/10/25 02:59:51;;;;;;;;;;;;;;;12.12;73.54;101149.24;1680626;85;25470;-61
2022/10/25 03:02:18;;;;;;;;;;;;;;;12.17;73.58;101152.88;1681257;85;27502;-61
2022/10/25 03:04:44;;;;;;;;;;;;;;;12.21;73.59;101155.16;1680815;85;25626;-61
2022/10/25 03:07:10;;;;;;;;;;;;;;;12.28;73.63;101150.55;1701532;83;25974;-61
2022/10/25 03:09:37;;;;;;;;;;;;;;;12.35;73.69;101154.40;1701364;82;25800;-61
2022/10/25 03:12:03;;;;;;;;;;;;;;;12.35;73.37;101157.97;1701394;84;25772;-61
2022/10/25 03:14:30;;;;;;;;;;;;;;;12.39;73.37;101167.98;1701392;84;27536;-60
2022/10/25 03:16:56;;;;;;;;;;;;;;;12.43;73.46;101155.06;1700027;83;25723;-61
2022/10/25 03:19:23;;;;;;;;;;;;;;;12.48;73.45;101152.31;1677016;85;25759;-61
2022/10/25 03:21:49;;;;;;;;;;;;;;;12.52;73.35;101148.32;1606413;88;25872;-60
2022/10/25 03:24:16;;;;;;;;;;;;;;;12.57;73.14;101144.37;1653250;86;25724;-60
2022/10/25 03:26:42;;;;;;;;;;;;;;;12.56;73.15;101143.50;1604155;88;27601;-61
2022/10/25 03:29:09;;;;;;;;;;;;;;;12.59;73.16;101141.87;1650994;86;25638;-61
2022/10/25 03:31:36;;;;;;;;;;;;;;;12.59;73.03;101133.78;1679691;85;25950;-62
2022/10/25 03:34:02;;;;;;;;;;;;;;;12.61;72.96;101126.88;1679206;84;25845;-62
2022/10/25 03:36:29;;;;;;;;;;;;;;;12.61;72.79;101122.84;1697121;83;25737;-61
2022/10/25 03:38:55;;;;;;;;;;;;;;;12.60;72.60;101109.84;1708615;83;27577;-62
2022/10/25 03:41:21;;;;;;;;;;;;;;;12.60;72.51;101111.20;1683312;83;25652;-60
2022/10/25 03:43:48;;;;;;;;;;;;;;;12.61;72.46;101107.98;1680270;85;25687;-60
2022/10/25 03:46:15;;;;;;;;;;;;;;;12.61;72.72;101099.89;1680402;85;25795;-62
2022/10/25 03:48:42;;;;;;;;;;;;;;;12.63;72.81;101100.13;1678779;85;25718;-60
2022/10/25 03:51:08;;;;;;;;;;;;;;;12.65;72.66;101099.47;1677307;84;28388;-61
2022/10/25 03:53:35;;;;;;;;;;;;;;;12.66;72.73;101090.38;1676018;85;25794;-60
2022/10/25 03:56:01;;;;;;;;;;;;;;;12.66;72.62;101090.89;1678485;85;25845;-60
2022/10/25 03:58:28;;;;;;;;;;;;;;;12.67;72.69;101080.45;1678722;85;25797;-60
2022/10/25 04:00:55;;;;;;;;;;;;;;;12.68;72.54;101076.77;1675396;85;25786;-61
2022/10/25 04:03:21;;;;;;;;;;;;;;;12.64;71.99;101074.82;1675447;85;29599;-61
2022/10/25 04:05:48;;;;;;;;;;;;;;;12.61;72.08;101068.38;1678331;85;25771;-61
2022/10/25 04:08:14;;;;;;;;;;;;;;;12.62;72.25;101069.22;1686361;83;25819;-61
2022/10/25 04:10:41;;;;;;;;;;;;;;;12.60;72.26;101075.24;1678503;85;26036;-61
2022/10/25 04:13:07;;;;;;;;;;;;;;;12.56;72.19;101082.77;1677836;84;27434;-61
2022/10/25 04:15:34;;;;;;;;;;;;;;;12.57;72.40;101082.30;1674745;85;27477;-62
2022/10/25 04:18:00;;;;;;;;;;;;;;;12.58;72.48;101078.61;1674730;85;25684;-61
2022/10/25 04:20:27;;;;;;;;;;;;;;;12.59;72.24;101074.41;1674734;84;25687;-61
2022/10/25 04:22:54;;;;;;;;;;;;;;;12.56;72.09;101074.67;1674762;85;25793;-61
2022/10/25 04:25:22;;;;;;;;;;;;;;;12.55;72.24;101081.06;1674842;83;26761;-61
2022/10/25 04:27:48;;;;;;;;;;;;;;;12.55;72.53;101085.11;1674934;85;27566;-61
2022/10/25 04:30:15;;;;;;;;;;;;;;;12.56;72.38;101086.83;1674883;85;25763;-61
2022/10/25 04:32:41;;;;;;;;;;;;;;;12.53;72.19;101075.83;1679041;83;25775;-61
2022/10/25 04:35:08;;;;;;;;;;;;;;;12.52;72.20;101082.20;1678922;85;26533;-62
2022/10/25 04:37:35;;;;;;;;;;;;;;;12.51;71.96;101071.56;1678688;85;25453;-61
2022/10/25 04:40:01;;;;;;;;;;;;;;;12.49;72.12;101077.12;1679106;85;27507;-60
2022/10/25 04:42:28;;;;;;;;;;;;;;;12.49;72.20;101084.34;1679815;84;25418;-61
2022/10/25 04:44:54;;;;;;;;;;;;;;;12.50;72.38;101086.05;1678603;84;25743;-62
2022/10/25 04:47:21;;;;;;;;;;;;;;;12.48;72.23;101084.85;1680165;85;25982;-61
2022/10/25 04:49:47;;;;;;;;;;;;;;;12.47;72.17;101080.44;1685548;83;25764;-62
2022/10/25 04:52:14;;;;;;;;;;;;;;;12.49;72.29;101082.99;1697957;83;27544;-61
2022/10/25 04:54:40;;;;;;;;;;;;;;;12.47;72.39;101075.53;1693946;84;25716;-61
2022/10/25 04:57:07;;;;;;;;;;;;;;;12.45;72.00;101073.49;1685564;84;25722;-61
2022/10/25 04:59:33;;;;;;;;;;;;;;;12.45;72.29;101080.23;1685725;84;25799;-61
2022/10/25 05:02:00;;;;;;;;;;;;;;;12.44;72.32;101081.23;1684514;84;25800;-61
2022/10/25 05:04:27;;;;;;;;;;;;;;;12.43;72.02;101073.61;1685781;85;28216;-61
2022/10/25 05:06:53;;;;;;;;;;;;;;;12.46;72.20;101085.48;1686299;85;25700;-62
2022/10/25 05:09:19;;;;;;;;;;;;;;;12.46;72.29;101079.25;1685062;85;25775;-61
2022/10/25 05:11:46;;;;;;;;;;;;;;;12.47;72.34;101084.49;1685598;84;25806;-61
2022/10/25 05:14:13;;;;;;;;;;;;;;;12.48;72.36;101088.90;1683160;83;25793;-61
2022/10/25 05:16:40;;;;;;;;;;;;;;;12.46;72.04;101088.69;1679112;83;27475;-61
2022/10/25 05:19:06;;;;;;;;;;;;;;;12.43;71.92;101086.27;1679086;85;25699;-61
2022/10/25 05:21:34;;;;;;;;;;;;;;;12.30;71.93;101085.19;1681836;84;25768;-62
2022/10/25 05:24:00;;;;;;;;;;;;;;;12.25;72.37;101083.38;1685534;85;25826;-61
2022/10/25 05:26:27;;;;;;;;;;;;;;;12.25;72.68;101082.03;1685808;84;25731;-61
2022/10/25 05:28:54;;;;;;;;;;;;;;;12.27;72.82;101080.93;1685646;85;27550;-61
2022/10/25 05:31:26;;;;;;;;;;;;;;;12.28;72.83;101088.51;1700865;82;25814;-61
2022/10/25 05:33:59;;;;;;;;;;;;;;;12.28;72.79;101079.06;1685606;84;26523;-61
2022/10/25 05:36:28;;;;;;;;;;;;;;;12.24;72.67;101079.84;1685469;85;27993;-61
2022/10/25 05:38:54;;;;;;;;;;;;;;;12.19;72.89;101095.61;1685472;85;25737;-61
2022/10/25 05:41:21;;;;;;;;;;;;;;;12.14;72.81;101100.07;1657491;85;28732;-60
2022/10/25 05:43:48;;;;;;;;;;;;;;;12.10;72.77;101105.38;1665184;83;25462;-60
2022/10/25 05:46:21;;;;;;;;;;;;;;;12.07;72.88;101105.63;1685570;85;25719;-61
2022/10/25 05:48:48;;;;;;;;;;;;;;;12.04;72.88;101105.93;1679821;84;25843;-61
2022/10/25 05:51:25;;;;;;;;;;;;;;;12.01;72.94;101095.41;1677861;83;25725;-60
2022/10/25 05:53:53;;;;;;;;;;;;;;;12.00;72.90;101100.44;1677719;84;28129;-61
2022/10/25 05:56:21;;;;;;;;;;;;;;;11.98;72.87;101100.59;1703767;84;25727;-61
2022/10/25 05:58:47;;;;;;;;;;;;;;;11.97;72.89;101112.36;1704580;84;25745;-60
2022/10/25 06:01:16;;;;;;;;;;;;;;;11.98;73.37;101115.89;1703565;84;26828;-60
2022/10/25 06:03:43;;;;;;;;;;;;;;;11.98;73.19;101119.94;1677305;84;25962;-61
2022/10/25 06:06:11;;;;;;;;;;;;;;;12.00;73.27;101122.02;1678019;83;28407;-61
2022/10/25 06:08:38;;;;;;;;;;;;;;;12.02;73.28;101126.27;1674847;84;25981;-62
2022/10/25 06:11:07;;;;;;;;;;;;;;;12.06;73.29;101133.59;1679147;83;25684;-61
2022/10/25 06:13:36;;;;;;;;;;;;;;;12.10;73.19;101136.38;1679077;85;25885;-61
2022/10/25 06:16:08;;;;;;;;;;;;;;;12.16;73.20;101137.68;1680002;84;26346;-62
2022/10/25 06:18:37;;;;;;;;;;;;;;;12.23;73.29;101133.95;1678911;85;27479;-61
2022/10/25 06:21:11;;;;;;;;;;;;;;;12.30;73.28;101128.34;1679033;85;25895;-61
2022/10/25 06:23:40;;;;;;;;;;;;;;;12.40;73.52;101133.27;1702970;84;26471;-61
2022/10/25 06:26:12;;;;;;;;;;;;;;;12.52;73.17;101136.69;1703493;84;25826;-61
2022/10/25 06:28:39;;;;;;;;;;;;;;;12.64;72.99;101141.45;1704636;84;25782;-61
2022/10/25 06:31:10;;;;;;;;;;;;;;;12.75;73.03;101135.06;1705374;82;27457;-61
2022/10/25 06:33:38;;;;;;;;;;;;;;;12.88;72.95;101137.48;1677446;85;25735;-61
2022/10/25 06:36:06;;;;;;;;;;;;;;;12.98;72.93;101133.80;1678132;85;25485;-61
2022/10/25 06:38:33;;;;;;;;;;;;;;;13.08;72.54;101132.42;1697974;84;25817;-62
2022/10/25 06:41:05;;;;;;;;;;;;;;;13.19;72.35;101130.57;1698555;84;25603;-61
2022/10/25 06:43:35;;;;;;;;;;;;;;;13.31;72.31;101130.27;1695319;84;28127;-61
2022/10/25 06:46:11;;;;;;;;;;;;;;;13.43;72.09;101129.62;1699538;84;25709;-61
2022/10/25 06:48:38;;;;;;;;;;;;;;;13.54;71.93;101125.88;1703834;82;25429;-61
2022/10/25 06:51:11;;;;;;;;;;;;;;;13.61;71.77;101124.31;1705842;84;26303;-61
2022/10/25 06:53:37;;;;;;;;;;;;;;;13.68;71.47;101120.50;1705592;84;25686;-61
2022/10/25 06:56:07;;;;;;;;;;;;;;;13.81;71.33;101109.86;1700709;82;28262;-61
2022/10/25 06:58:36;;;;;;;;;;;;;;;13.90;71.23;101111.16;1691317;82;25887;-61
2022/10/25 07:01:05;;;;;;;;;;;;;;;14.04;71.27;101108.97;1691584;84;25832;-61
2022/10/25 07:03:35;;;;;;;;;;;;;;;14.16;71.20;101113.19;1691152;84;25793;-61
2022/10/25 07:06:06;;;;;;;;;;;;;;;14.27;71.00;101106.70;1696509;84;25719;-60
2022/10/25 07:08:35;;;;;;;;;;;;;;;14.34;70.59;101098.31;1703960;84;27708;-61
2022/10/25 07:11:03;;;;;;;;;;;;;;;14.39;70.39;101099.20;1703325;84;25935;-60
2022/10/25 07:13:30;;;;;;;;;;;;;;;14.45;70.13;101095.88;1723295;82;25916;-61
2022/10/25 07:16:06;;;;;;;;;;;;;;;14.53;69.99;101100.02;1717489;83;25778;-62
2022/10/25 07:18:34;;;;;;;;;;;;;;;14.62;70.01;101088.78;1702544;84;25817;-62
2022/10/25 07:21:03;;;;;;;;;;;;;;;14.71;69.97;101087.87;1705016;84;27431;-62
2022/10/25 07:23:30;;;;;;;;;;;;;;;14.82;69.43;101083.23;1701928;84;25761;-62
2022/10/25 07:25:57;;;;;;;;;;;;;;;14.92;69.39;101082.64;1704715;84;25802;-62
2022/10/25 07:28:23;;;;;;;;;;;;;;;15.06;69.19;101085.26;1704413;84;25834;-62
2022/10/25 07:30:50;;;;;;;;;;;;;;;15.16;68.93;101085.17;1704817;84;27310;-62
2022/10/25 07:33:18;;;;;;;;;;;;;;;15.25;68.59;101083.35;1704773;84;27648;-61
2022/10/25 07:35:46;;;;;;;;;;;;;;;15.34;68.43;101077.84;1703688;84;25849;-61
2022/10/25 07:38:13;;;;;;;;;;;;;;;15.43;67.87;101076.53;1702763;82;25831;-62
2022/10/25 07:40:40;;;;;;;;;;;;;;;15.40;67.18;101070.94;1696948;82;25776;-62
2022/10/25 07:43:07;;;;;;;;;;;;;;;15.42;67.16;101079.73;1701205;84;25730;-62
2022/10/25 07:45:35;;;;;;;;;;;;;;;15.45;66.62;101075.88;1704608;82;29660;-62
2022/10/25 07:48:01;;;;;;;;;;;;;;;15.45;66.43;101074.52;1715792;82;25907;-62
2022/10/25 07:50:28;;;;;;;;;;;;;;;15.42;66.26;101082.44;1700808;82;25777;-62
2022/10/25 07:52:56;;;;;;;;;;;;;;;15.41;66.26;101079.91;1700894;84;25878;-60
2022/10/25 07:55:23;;;;;;;;;;;;;;;15.46;66.34;101083.00;1705359;83;25748;-61
2022/10/25 07:57:50;;;;;;;;;;;;;;;15.58;66.41;101077.63;1705408;84;27585;-62
2022/10/25 08:00:17;;;;;;;;;;;;;;;15.72;65.52;101072.62;1700828;84;26466;-62
2022/10/25 08:02:44;;;;;;;;;;;;;;;15.81;65.55;101070.29;1706419;83;25807;-62
2022/10/25 08:05:10;;;;;;;;;;;;;;;15.94;65.49;101067.98;1705853;84;27998;-62
2022/10/25 08:07:36;;;;;;;;;;;;;;;16.12;65.27;101056.16;1704911;84;25614;-62
2022/10/25 08:10:04;;;;;;;;;;;;;;;16.30;65.26;101056.04;1704855;84;27520;-61
2022/10/25 08:12:31;;;;;;;;;;;;;;;16.51;65.28;101056.05;1704399;84;25854;-62
2022/10/25 08:14:57;;;;;;;;;;;;;;;16.65;64.85;101055.39;1701173;82;25737;-61
2022/10/25 08:17:24;;;;;;;;;;;;;;;16.85;64.39;101042.30;1692860;84;25843;-61
2022/10/25 08:19:50;;;;;;;;;;;;;;;17.02;63.72;101041.82;1696993;84;25795;-61
2022/10/25 08:22:16;;;;;;;;;;;;;;;17.19;63.52;101039.91;1704550;84;28384;-61
2022/10/25 08:24:43;;;;;;;;;;;;;;;17.45;63.24;101031.17;1702443;84;25847;-60
2022/10/25 08:27:09;;;;;;;;;;;;;;;17.66;62.63;101029.22;1696576;82;25766;-61
2022/10/25 08:29:35;;;;;;;;;;;;;;;17.90;62.02;101033.70;1695056;82;25916;-61
2022/10/25 08:32:02;;;;;;;;;;;;;;;18.11;61.08;101024.06;1704061;84;25811;-62
2022/10/25 08:34:28;;;;;;;;;;;;;;;18.28;60.43;101012.06;1702933;84;27462;-62
2022/10/25 08:36:54;;;;;;;;;;;;;;;18.50;60.15;101009.50;1699639;83;25754;-62
2022/10/25 08:39:21;;;;;;;;;;;;;;;18.72;59.35;101010.50;1704254;84;25860;-63
2022/10/25 08:41:54;;;;;;;;;;;;;;;18.93;58.41;101008.45;1709667;82;25789;-61
2022/10/25 08:44:46;;;;;;;;;;;;;;;19.19;58.66;100998.14;1703748;82;25818;-58
2022/10/25 08:47:26;;;;;;;;;;;;;;;19.48;58.11;100994.55;1704286;84;28193;-59
2022/10/25 08:50:08;;;;;;;;;;;;;;;19.82;57.48;100991.70;1704272;84;26149;-62
2022/10/25 08:52:44;;;;;;;;;;;;;;;20.20;56.47;100987.10;1661907;84;26532;-57
2022/10/25 08:55:14;;;;;;;;;;;;;;;20.39;55.73;100988.36;1671308;84;26859;-59
2022/10/25 08:57:48;;;;;;;;;;;;;;;20.78;54.94;100988.38;1629920;87;25566;-65
2022/10/25 09:00:18;;;;;;;;;;;;;;;21.33;54.32;100981.70;1703848;83;28173;-62
2022/10/25 09:02:56;;;;;;;;;;;;;;;21.69;53.36;100978.40;1721811;82;25835;-60
2022/10/25 09:05:35;;;;;;;;;;;;;;;22.05;53.55;100984.08;1705544;82;25728;-61
2022/10/25 09:08:08;;;;;;;;;;;;;;;22.64;52.43;100978.88;1678386;84;25841;-60
2022/10/25 09:10:38;;;;;;;;;;;;;;;23.20;50.90;100975.36;1680677;84;25943;-61
2022/10/25 09:13:30;;;;;;;;;;;;;;;23.81;50.44;100974.58;1679612;84;27530;-61
2022/10/25 09:16:03;;;;;;;;;;;;;;;24.36;48.28;100974.89;1678315;84;25656;-61
2022/10/25 09:18:43;;;;;;;;;;;;;;;24.80;46.08;100978.25;1683150;83;25720;-61
2022/10/25 09:21:16;;;;;;;;;;;;;;;25.11;43.59;100977.30;1696038;84;25826;-60
2022/10/25 09:23:46;;;;;;;;;;;;;;;25.61;45.56;100967.23;1691218;84;25810;-60
2022/10/25 09:26:31;;;;;;;;;;;;;;;26.17;44.17;100967.11;1699894;84;28016;-60
2022/10/25 09:29:21;;;;;;;;;;;;;;;26.79;43.23;100967.28;1705237;84;25787;-61
2022/10/25 09:31:51;;;;;;;;;;;;;;;27.21;42.51;100960.20;1703168;83;25430;-61
2022/10/25 09:34:21;;;;;;;;;;;;;;;27.57;39.18;100965.13;1703732;83;25862;-60
2022/10/25 09:36:50;;;;;;;;;;;;;;;27.96;40.00;100966.72;1705650;84;25850;-60
2022/10/25 09:39:23;;;;;;;;;;;;;;;28.21;40.85;100962.76;1704468;84;27480;-60
2022/10/25 09:41:52;;;;;;;;;;;;;;;28.40;40.49;100962.52;1682134;82;25798;-62
2022/10/25 09:44:34;;;;;;;;;;;;;;;28.72;39.83;100966.94;1699234;83;25797;-61
2022/10/25 09:47:04;;;;;;;;;;;;;;;28.87;37.67;100959.95;1692500;84;25841;-60
2022/10/25 09:49:58;;;;;;;;;;;;;;;29.22;37.34;100955.98;1702979;84;25686;-61
2022/10/25 09:52:28;;;;;;;;;;;;;;;29.19;36.36;100955.11;1675594;85;28753;-61
2022/10/25 09:55:17;;;;;;;;;;;;;;;29.30;36.55;100951.38;1678195;84;25723;-62
2022/10/25 09:57:45;;;;;;;;;;;;;;;29.30;33.75;100943.08;1677923;85;25777;-61
2022/10/25 10:00:13;;;;;;;;;;;;;;;28.92;35.00;100928.72;1677858;85;25935;-62
2022/10/25 10:02:40;;;;;;;;;;;;;;;28.84;35.50;100917.00;1678109;85;25919;-61
2022/10/25 10:05:18;;;;;;;;;;;;;;;28.78;36.19;100907.49;1677921;84;29578;-62
2022/10/25 10:07:47;;;;;;;;;;;;;;;28.90;36.42;100909.61;1677872;83;25933;-61
2022/10/25 10:10:16;;;;;;;;;;;;;;;29.05;35.99;100912.58;1683958;83;25818;-60
2022/10/25 10:12:52;;;;;;;;;;;;;;;29.13;35.39;100904.91;1706138;84;25968;-61
2022/10/25 10:15:28;;;;;;;;;;;;;;;29.24;35.19;100910.02;1686658;84;25920;-61
2022/10/25 10:18:23;;;;;;;;;;;;;;;28.82;35.69;100908.67;1679401;84;27436;-61
2022/10/25 10:20:59;;;;;;;;;;;;;;;28.44;35.55;100905.58;1672414;83;25688;-62
2022/10/25 10:23:29;;;;;;;;;;;;;;;28.18;35.68;100894.67;1676054;85;25790;-61
2022/10/25 10:25:56;;;;;;;;;;;;;;;28.07;35.82;100893.11;1703118;83;25865;-61
2022/10/25 10:28:22;;;;;;;;;;;;;;;27.90;36.09;100894.44;1706260;84;25825;-61
2022/10/25 10:30:57;;;;;;;;;;;;;;;27.41;36.06;100889.35;1693687;83;27614;-60
2022/10/25 10:33:29;;;;;;;;;;;;;;;26.81;36.80;100890.58;1682360;83;25750;-61
2022/10/25 10:35:56;;;;;;;;;;;;;;;26.22;37.25;100896.38;1678613;85;26477;-61
2022/10/25 10:38:25;;;;;;;;;;;;;;;25.98;38.15;100897.38;1657018;85;25838;-60
2022/10/25 10:40:55;;;;;;;;;;;;;;;26.16;38.47;100897.33;1676791;84;25799;-60
2022/10/25 10:43:31;;;;;;;;;;;;;;;26.16;38.39;100899.27;1654375;83;27481;-60
2022/10/25 10:46:03;;;;;;;;;;;;;;;25.86;38.83;100897.36;1678876;84;27006;-60
2022/10/25 10:48:33;;;;;;;;;;;;;;;25.50;39.21;100891.74;1679781;84;25775;-60
2022/10/25 10:51:00;;;;;;;;;;;;;;;25.14;39.54;100883.27;1685708;84;25781;-61
2022/10/25 10:53:30;;;;;;;;;;;;;;;24.75;40.20;100877.69;1687392;83;25711;-60
2022/10/25 10:56:02;;;;;;;;;;;;;;;24.43;40.49;100881.91;1687251;83;27456;-60
2022/10/25 10:58:33;;;;;;;;;;;;;;;24.16;41.21;100880.77;1667296;85;25501;-60
2022/10/25 11:01:06;;;;;;;;;;;;;;;23.91;41.80;100876.05;1686258;84;26484;-60
2022/10/25 11:03:45;;;;;;;;;;;;;;;23.64;42.12;100876.23;1687183;83;27182;-61
2022/10/25 11:06:15;;;;;;;;;;;;;;;23.43;42.74;100876.03;1686883;85;25737;-61
2022/10/25 11:08:43;;;;;;;;;;;;;;;23.20;42.91;100870.56;1686848;85;27471;-59
2022/10/25 11:11:17;;;;;;;;;;;;;;;23.03;43.44;100872.91;1685329;84;25898;-61
2022/10/25 11:13:58;;;;;;;;;;;;;;;22.83;43.56;100866.95;1686975;83;25813;-60
2022/10/25 11:16:45;;;;;;;;;;;;;;;22.75;44.14;100875.41;1678134;85;25902;-59
2022/10/25 11:19:32;;;;;;;;;;;;;;;22.62;44.30;100879.58;1664743;84;25738;-60
2022/10/25 11:22:27;;;;;;;;;;;;;;;22.49;44.46;100875.78;1685647;84;27528;-61
2022/10/25 11:25:04;;;;;;;;;;;;;;;22.41;45.21;100869.70;1687568;83;25866;-61
2022/10/25 11:27:40;;;;;;;;;;;;;;;22.33;45.99;100870.17;1685376;84;25782;-61
2022/10/25 11:30:18;;;;;;;;;;;;;;;22.21;46.19;100869.15;1685649;83;25826;-60
2022/10/25 11:33:11;;;;;;;;;;;;;;;22.06;46.30;100876.20;1681151;85;25778;-60
2022/10/25 11:36:07;;;;;;;;;;;;;;;21.96;46.68;100877.14;1659743;85;28301;-61
2022/10/25 11:38:54;;;;;;;;;;;;;;;21.86;47.08;100869.34;1672683;85;25778;-60
2022/10/25 11:41:47;;;;;;;;;;;;;;;21.82;46.81;100861.22;1684809;85;25718;-60
2022/10/25 11:44:29;;;;;;;;;;;;;;;21.82;47.07;100864.81;1693641;83;25983;-60
2022/10/25 11:47:18;;;;;;;;;;;;;;;21.78;47.03;100864.91;1684095;83;26543;-60
2022/10/25 11:49:53;;;;;;;;;;;;;;;21.72;47.10;100868.48;1690278;83;27497;-60
2022/10/25 11:52:38;;;;;;;;;;;;;;;21.56;47.38;100862.29;1680925;84;25948;-61
2022/10/25 11:55:25;;;;;;;;;;;;;;;21.46;47.91;100861.01;1678567;84;25708;-60
2022/10/25 11:58:07;;;;;;;;;;;;;;;21.28;48.36;100864.33;1675779;84;25870;-61
2022/10/25 12:00:39;;;;;;;;;;;;;;;21.11;48.42;100872.91;1685625;84;26431;-61
2022/10/25 12:03:15;;;;;;;;;;;;;;;20.99;48.91;100872.61;1706703;82;28412;-60
2022/10/25 12:06:03;;;;;;;;;;;;;;;20.86;49.30;100867.92;1710374;83;25775;-61
2022/10/25 12:08:50;;;;;;;;;;;;;;;20.77;49.67;100875.46;1681182;85;25758;-60
2022/10/25 12:11:20;;;;;;;;;;;;;;;20.64;50.18;100881.66;1686315;84;25855;-61
2022/10/25 12:13:53;;;;;;;;;;;;;;;20.49;50.28;100883.12;1686587;83;25707;-62
2022/10/25 12:16:21;;;;;;;;;;;;;;;20.41;50.41;100879.69;1715358;82;28089;-60
2022/10/25 12:18:57;;;;;;;;;;;;;;;20.32;51.57;100885.30;1715773;83;25727;-61
2022/10/25 12:21:26;;;;;;;;;;;;;;;20.29;51.88;100876.66;1694286;83;25499;-60
2022/10/25 12:23:54;;;;;;;;;;;;;;;20.24;52.15;100869.59;1681651;83;26427;-60
2022/10/25 12:26:29;;;;;;;;;;;;;;;20.16;52.33;100868.70;1658941;86;25771;-61
2022/10/25 12:28:58;;;;;;;;;;;;;;;20.09;54.00;100871.88;1660460;85;28832;-60
2022/10/25 12:31:34;;;;;;;;;;;;;;;19.90;54.42;100882.95;1670406;85;25877;-60
2022/10/25 12:34:10;;;;;;;;;;;;;;;19.76;54.16;100879.75;1682800;83;25805;-61
2022/10/25 12:36:46;;;;;;;;;;;;;;;19.70;54.41;100876.73;1689598;83;25796;-61
2022/10/25 12:39:25;;;;;;;;;;;;;;;19.64;54.31;100884.34;1668104;85;25609;-60
2022/10/25 12:41:58;;;;;;;;;;;;;;;19.60;54.87;100883.56;1672211;84;27605;-60
2022/10/25 12:44:43;;;;;;;;;;;;;;;19.58;55.15;100873.34;1704989;84;25756;-59
2022/10/25 12:47:19;;;;;;;;;;;;;;;19.61;55.26;100878.43;1670670;85;25783;-60
2022/10/25 12:49:52;;;;;;;;;;;;;;;19.63;54.91;100884.02;1675059;85;25762;-60
2022/10/25 12:52:34;;;;;;;;;;;;;;;19.61;55.56;100870.24;1693786;83;25713;-63
2022/10/25 12:55:37;;;;;;;;;;;;;;;19.53;55.70;100863.02;1685883;83;27645;-61